Time;durP1;ratioP1;P1;durP2;ratioP2;P2;SDS_P1;SDS_P2;PMS_P1;PMS_P2;Temp;Humidity;BMP_temperature;BMP_pressure;BME280_temperature;BME280_humidity;BME280_pressure;Samples;Min_cycle;Max_cycle;Signal;HPM_P1;HPM_P2
2023/08/21 00:00:24;;;;;;;5.40;4.40;;;;;;;21.25;100.00;99883.21;105242;1261;60460;-49
2023/08/21 00:02:52;;;;;;;4.50;3.90;;;;;;;21.22;100.00;99883.78;105178;1260;60560;-50
2023/08/21 00:05:19;;;;;;;4.20;3.90;;;;;;;21.19;100.00;99879.52;108809;1256;72935;-51
2023/08/21 00:07:50;;;;;;;5.10;3.80;;;;;;;21.16;100.00;99878.66;108823;1256;67352;-51
2023/08/21 00:10:18;;;;;;;4.40;4.10;;;;;;;21.14;100.00;99873.11;108915;1256;71331;-51
2023/08/21 00:12:45;;;;;;;4.10;3.70;;;;;;;21.13;100.00;99873.57;108883;1255;60156;-50
2023/08/21 00:15:12;;;;;;;4.40;3.70;;;;;;;21.13;100.00;99876.67;108834;1257;58790;-51
2023/08/21 00:17:40;;;;;;;3.90;3.40;;;;;;;21.11;100.00;99876.32;108909;1255;73775;-50
2023/08/21 00:20:09;;;;;;;6.50;3.70;;;;;;;21.11;100.00;99873.23;108866;1255;65156;-50
2023/08/21 00:22:37;;;;;;;3.80;3.40;;;;;;;21.10;100.00;99873.09;108817;1256;72637;-52
2023/08/21 00:25:05;;;;;;;3.80;3.50;;;;;;;21.12;100.00;99871.91;105100;1262;64001;-49
2023/08/21 00:27:33;;;;;;;3.60;3.20;;;;;;;21.12;100.00;99879.30;105285;1261;60578;-53
2023/08/21 00:30:01;;;;;;;11.30;3.40;;;;;;;21.13;100.00;99880.39;105273;1256;73849;-51
2023/08/21 00:32:28;;;;;;;4.10;3.90;;;;;;;21.12;100.00;99883.88;105150;1258;67635;-50
2023/08/21 00:34:56;;;;;;;4.60;4.20;;;;;;;21.12;100.00;99877.34;105279;1259;72677;-50
2023/08/21 00:37:24;;;;;;;5.00;4.40;;;;;;;21.11;100.00;99881.98;105329;1252;60459;-49
2023/08/21 00:39:51;;;;;;;4.20;3.90;;;;;;;21.08;100.00;99884.08;105254;1253;60529;-51
2023/08/21 00:42:19;;;;;;;4.80;3.40;;;;;;;21.06;100.00;99886.10;105080;1251;74263;-50
2023/08/21 00:44:46;;;;;;;5.20;4.70;;;;;;;21.04;100.00;99886.66;105153;1251;66883;-50
2023/08/21 00:47:13;;;;;;;4.40;2.80;;;;;;;21.01;100.00;99887.31;105231;1257;71902;-50
2023/08/21 00:49:41;;;;;;;4.60;3.40;;;;;;;20.96;100.00;99885.33;105315;1253;60487;-50
2023/08/21 00:52:11;;;;;;;4.80;3.60;;;;;;;20.93;100.00;99885.08;105171;1251;60534;-51
2023/08/21 00:54:38;;;;;;;9.60;3.90;;;;;;;20.90;100.00;99886.29;108917;1252;73839;-51
2023/08/21 00:57:05;;;;;;;5.60;3.80;;;;;;;20.87;100.00;99879.98;107056;1253;68713;-50
2023/08/21 00:59:33;;;;;;;3.70;3.40;;;;;;;20.85;100.00;99876.29;105157;1257;72646;-52
2023/08/21 01:02:00;;;;;;;3.60;3.40;;;;;;;20.84;100.00;99872.59;105298;1257;61114;-49
2023/08/21 01:04:27;;;;;;;5.00;3.30;;;;;;;20.83;100.00;99873.77;105325;1252;61832;-50
2023/08/21 01:06:56;;;;;;;4.30;3.10;;;;;;;20.82;100.00;99872.08;105175;1251;73899;-50
2023/08/21 01:09:54;;;;;;;3.60;2.60;;;;;;;20.81;100.00;99872.73;105974;1251;66859;-50
2023/08/21 01:12:31;;;;;;;3.70;3.00;;;;;;;20.78;100.00;99872.59;105295;1251;74205;-50
2023/08/21 01:15:00;;;;;;;6.30;3.80;;;;;;;20.77;100.00;99874.63;105170;1253;61276;-49
2023/08/21 01:17:29;;;;;;;4.90;3.70;;;;;;;20.76;100.00;99876.70;105610;1253;60517;-50
2023/08/21 01:19:57;;;;;;;4.00;3.70;;;;;;;20.76;100.00;99878.36;105056;1255;74806;-51
2023/08/21 01:22:27;;;;;;;4.00;3.80;;;;;;;20.75;100.00;99877.73;105151;1253;65748;-49
2023/08/21 01:24:55;;;;;;;3.40;2.60;;;;;;;20.74;100.00;99880.02;105065;1251;72500;-48
2023/08/21 01:27:22;;;;;;;5.40;4.90;;;;;;;20.74;100.00;99882.23;105255;1258;60866;-51
2023/08/21 01:29:49;;;;;;;3.60;3.30;;;;;;;20.74;100.00;99879.35;105196;1253;60772;-49
2023/08/21 01:32:35;;;;;;;6.00;5.50;;;;;;;20.72;100.00;99879.68;105102;1259;74386;-48
2023/08/21 01:35:04;;;;;;;5.30;4.80;;;;;;;20.67;100.00;99882.60;108952;1251;66399;-51
2023/08/21 01:37:31;;;;;;;4.00;3.70;;;;;;;20.62;100.00;99887.10;106816;1257;72123;-50
2023/08/21 01:39:58;;;;;;;5.20;3.60;;;;;;;20.58;100.00;99889.70;105429;1253;60597;-48
2023/08/21 01:42:26;;;;;;;3.50;3.20;;;;;;;20.55;100.00;99896.88;105263;1252;60113;-51
2023/08/21 01:44:54;;;;;;;4.10;3.40;;;;;;;20.52;100.00;99900.06;105277;1251;72658;-51
2023/08/21 01:47:21;;;;;;;3.40;3.20;;;;;;;20.50;100.00;99897.84;105323;1256;66611;-50
2023/08/21 01:49:52;;;;;;;3.20;3.10;;;;;;;20.48;100.00;99900.95;105216;1254;71371;-52
2023/08/21 01:52:19;;;;;;;4.20;4.00;;;;;;;20.45;100.00;99900.63;105202;1254;60550;-53
2023/08/21 01:54:50;;;;;;;4.10;3.30;;;;;;;20.43;100.00;99898.66;105933;1253;60407;-50
2023/08/21 01:57:17;;;;;;;3.80;3.60;;;;;;;20.41;100.00;99898.48;105220;1252;73304;-49
2023/08/21 01:59:45;;;;;;;8.10;4.10;;;;;;;20.40;100.00;99898.38;105554;1254;66171;-51
2023/08/21 02:02:12;;;;;;;3.70;3.20;;;;;;;20.38;100.00;99901.04;105253;1251;73142;-52
2023/08/21 02:04:40;;;;;;;4.20;2.70;;;;;;;20.36;100.00;99901.20;105466;1259;62313;-50
2023/08/21 02:07:07;;;;;;;9.50;2.90;;;;;;;20.34;100.00;99898.28;105537;1257;60401;-49
2023/08/21 02:09:34;;;;;;;6.40;4.30;;;;;;;20.31;100.00;99894.38;105505;1253;73810;-47
2023/08/21 02:12:02;;;;;;;4.60;4.20;;;;;;;20.29;100.00;99892.86;105534;1253;67260;-49
2023/08/21 02:14:29;;;;;;;4.50;4.20;;;;;;;20.29;100.00;99895.07;105450;1253;72776;-51
2023/08/21 02:16:56;;;;;;;4.40;4.10;;;;;;;20.29;100.00;99894.75;105379;1254;60549;-49
2023/08/21 02:19:24;;;;;;;4.90;4.50;;;;;;;20.28;100.00;99895.52;105380;1253;60512;-49
2023/08/21 02:21:51;;;;;;;4.40;4.00;;;;;;;20.25;100.00;99898.88;105324;1253;73893;-50
2023/08/21 02:24:19;;;;;;;4.40;4.10;;;;;;;20.22;100.00;99898.61;105489;1256;65497;-49
2023/08/21 02:26:46;;;;;;;4.60;4.20;;;;;;;20.20;100.00;99897.00;105428;1256;72760;-49
2023/08/21 02:29:13;;;;;;;8.80;5.20;;;;;;;20.17;100.00;99893.95;105426;1254;60540;-50
2023/08/21 02:31:42;;;;;;;4.10;3.90;;;;;;;20.16;100.00;99892.98;105833;1254;60457;-49
2023/08/21 02:34:09;;;;;;;4.60;4.30;;;;;;;20.13;100.00;99895.00;105340;1259;73831;-49
2023/08/21 02:36:37;;;;;;;5.00;4.60;;;;;;;20.10;100.00;99890.90;105142;1253;66578;-50
2023/08/21 02:39:05;;;;;;;4.40;4.00;;;;;;;20.08;100.00;99887.97;105285;1256;71375;-51
2023/08/21 02:41:32;;;;;;;4.70;4.20;;;;;;;20.07;100.00;99888.42;105394;1253;61646;-50
2023/08/21 02:44:00;;;;;;;4.70;4.30;;;;;;;20.08;100.00;99890.16;105255;1253;60526;-50
2023/08/21 02:46:27;;;;;;;4.90;4.70;;;;;;;20.09;100.00;99888.27;105225;1259;73806;-52
2023/08/21 02:48:55;;;;;;;4.40;3.80;;;;;;;20.08;100.00;99886.69;105330;1253;67647;-50
2023/08/21 02:51:23;;;;;;;4.80;4.40;;;;;;;20.08;100.00;99885.79;105255;1261;73671;-49
2023/08/21 02:53:50;;;;;;;5.60;4.20;;;;;;;20.08;100.00;99885.45;105174;1256;62193;-51
2023/08/21 02:56:18;;;;;;;5.00;4.70;;;;;;;20.09;100.00;99884.98;105297;1254;60488;-51
2023/08/21 02:58:46;;;;;;;4.10;3.80;;;;;;;20.08;100.00;99885.59;105257;1256;73836;-49
2023/08/21 03:01:13;;;;;;;5.00;3.40;;;;;;;20.07;100.00;99886.84;105456;1257;66553;-49
2023/08/21 03:03:41;;;;;;;4.30;4.10;;;;;;;20.06;100.00;99883.41;105341;1256;72315;-51
2023/08/21 03:06:08;;;;;;;3.80;3.50;;;;;;;20.07;100.00;99880.11;105264;1254;62035;-51
2023/08/21 03:08:36;;;;;;;3.20;3.10;;;;;;;20.04;100.00;99878.70;108833;1253;60009;-50
2023/08/21 03:11:04;;;;;;;4.50;4.30;;;;;;;20.01;100.00;99880.69;108915;1252;71987;-52
2023/08/21 03:13:33;;;;;;;5.10;3.20;;;;;;;20.01;100.00;99882.20;108919;1253;65578;-51
2023/08/21 03:16:00;;;;;;;4.30;4.10;;;;;;;20.01;100.00;99881.99;108801;1253;72394;-51
2023/08/21 03:18:31;;;;;;;3.60;3.40;;;;;;;20.01;100.00;99880.01;108807;1253;60376;-50
2023/08/21 03:20:59;;;;;;;4.00;3.70;;;;;;;20.02;100.00;99873.35;108993;1253;59487;-51
2023/08/21 03:23:27;;;;;;;3.30;3.10;;;;;;;20.02;100.00;99873.90;108836;1253;73859;-52
2023/08/21 03:25:55;;;;;;;3.60;3.30;;;;;;;20.01;100.00;99880.30;108819;1253;66333;-51
2023/08/21 03:28:23;;;;;;;4.80;3.40;;;;;;;20.02;100.00;99880.67;107496;1253;72630;-52
2023/08/21 03:30:52;;;;;;;4.80;4.10;;;;;;;20.02;100.00;99877.30;105190;1253;63587;-50
2023/08/21 03:33:19;;;;;;;3.50;3.30;;;;;;;20.04;100.00;99881.05;108806;1253;60003;-49
2023/08/21 03:35:47;;;;;;;3.30;3.10;;;;;;;20.07;100.00;99880.82;108929;1256;74460;-50
2023/08/21 03:38:15;;;;;;;4.80;4.10;;;;;;;20.10;100.00;99886.52;108976;1253;67858;-49
2023/08/21 03:40:44;;;;;;;4.50;4.20;;;;;;;20.12;100.00;99881.98;109003;1253;71428;-50
2023/08/21 03:43:11;;;;;;;3.80;3.10;;;;;;;20.14;100.00;99878.16;108970;1253;61672;-49
2023/08/21 03:45:38;;;;;;;4.50;4.20;;;;;;;20.17;100.00;99875.92;109056;1253;59952;-51
2023/08/21 03:48:06;;;;;;;3.80;3.50;;;;;;;20.22;100.00;99878.24;108944;1253;73841;-52
2023/08/21 03:50:34;;;;;;;4.10;3.70;;;;;;;20.27;100.00;99878.13;106662;1254;66453;-52
2023/08/21 03:53:01;;;;;;;5.20;3.20;;;;;;;20.32;100.00;99874.77;105180;1252;70560;-48
2023/08/21 03:55:29;;;;;;;3.40;3.20;;;;;;;20.37;100.00;99878.52;105355;1253;61668;-49
2023/08/21 03:57:56;;;;;;;4.20;3.90;;;;;;;20.41;100.00;99874.52;105257;1253;60461;-49
2023/08/21 04:00:23;;;;;;;4.30;4.10;;;;;;;20.46;100.00;99871.80;105197;1257;74828;-52
2023/08/21 04:02:51;;;;;;;4.40;3.60;;;;;;;20.50;100.00;99877.27;105196;1258;65677;-51
2023/08/21 04:05:19;;;;;;;6.90;4.00;;;;;;;20.55;100.00;99877.76;106713;1253;71372;-49
2023/08/21 04:07:46;;;;;;;5.90;4.80;;;;;;;20.61;100.00;99876.30;105392;1259;60561;-48
2023/08/21 04:10:14;;;;;;;4.50;4.10;;;;;;;20.68;100.00;99878.04;105356;1251;60358;-50
2023/08/21 04:12:41;;;;;;;3.30;3.10;;;;;;;20.78;100.00;99875.83;105431;1251;71638;-51
2023/08/21 04:15:09;;;;;;;3.30;2.80;;;;;;;20.93;100.00;99874.90;105271;1251;67733;-49
2023/08/21 04:17:37;;;;;;;4.10;3.80;;;;;;;21.06;100.00;99873.91;105363;1251;72416;-48
2023/08/21 04:20:05;;;;;;;6.50;4.40;;;;;;;21.18;100.00;99874.98;105790;1258;61063;-51
2023/08/21 04:22:34;;;;;;;4.40;4.00;;;;;;;21.30;100.00;99881.38;105196;1257;181717;-47
2023/08/21 04:26:48;;;;;;;4.50;4.10;;;;;;;21.53;100.00;99926.92;102206;1295;601607;-51
2023/08/21 04:29:15;;;;;;;5.10;4.80;;;;;;;21.68;100.00;99922.49;104239;1267;60235;-49
2023/08/21 04:31:43;;;;;;;5.40;5.10;;;;;;;21.88;100.00;99920.23;104400;1272;60495;-51
2023/08/21 04:34:11;;;;;;;4.90;4.40;;;;;;;22.14;100.00;99911.05;104340;1275;70977;-53
2023/08/21 04:36:40;;;;;;;4.40;4.10;;;;;;;22.43;100.00;99909.25;104363;1275;66947;-51
2023/08/21 04:39:08;;;;;;;3.70;3.50;;;;;;;22.74;100.00;99904.65;104838;1272;73678;-49
2023/08/21 04:41:36;;;;;;;3.50;3.30;;;;;;;22.99;100.00;99901.67;104323;1275;214605;-50
2023/08/21 04:44:03;;;;;;;4.10;3.70;;;;;;;23.14;100.00;99906.80;104572;1270;59460;-52
2023/08/21 04:46:31;;;;;;;4.30;3.50;;;;;;;23.29;100.00;99905.29;104615;1272;72434;-50
2023/08/21 04:48:59;;;;;;;4.20;3.80;;;;;;;23.38;100.00;99905.27;104857;1267;66923;-52
2023/08/21 04:51:27;;;;;;;3.60;3.30;;;;;;;23.40;100.00;99904.36;104578;1270;72660;-50
2023/08/21 04:53:54;;;;;;;3.50;3.20;;;;;;;23.39;100.00;99904.64;104090;1270;59643;-50
2023/08/21 04:56:21;;;;;;;4.90;4.30;;;;;;;23.36;100.00;99906.91;104090;1272;59627;-49
2023/08/21 04:58:49;;;;;;;5.00;4.20;;;;;;;23.35;100.00;99906.69;104109;1272;73055;-54
2023/08/21 05:01:17;;;;;;;4.50;4.20;;;;;;;23.32;100.00;99903.89;103781;1267;67573;-53
2023/08/21 05:03:46;;;;;;;4.30;4.10;;;;;;;23.28;100.00;99908.08;104559;1263;73036;-51
2023/08/21 05:06:14;;;;;;;5.30;4.10;;;;;;;23.26;100.00;99908.30;104888;1262;60457;-53
2023/08/21 05:08:41;;;;;;;4.20;3.90;;;;;;;23.25;100.00;99913.48;105101;1264;60052;-50
2023/08/21 05:11:09;;;;;;;2.80;2.70;;;;;;;23.24;100.00;99914.58;104624;1263;73927;-53
2023/08/21 05:13:37;;;;;;;2.50;2.30;;;;;;;23.24;100.00;99910.69;104666;1258;66717;-51
2023/08/21 05:16:06;;;;;;;3.70;2.80;;;;;;;23.26;100.00;99914.01;106085;1263;72821;-54
2023/08/21 05:18:36;;;;;;;5.90;2.90;;;;;;;23.30;100.00;99918.91;104966;1263;60401;-52
2023/08/21 05:21:04;;;;;;;2.90;2.80;;;;;;;23.35;100.00;99914.95;105520;1263;60006;-52
2023/08/21 05:23:31;;;;;;;5.00;2.60;;;;;;;23.40;100.00;99916.08;104731;1263;73029;-50
2023/08/21 05:26:02;;;;;;;5.30;3.10;;;;;;;23.44;100.00;99916.65;104427;1269;66728;-53
2023/08/21 05:28:30;;;;;;;5.40;3.20;;;;;;;23.47;100.00;99915.66;105222;1262;71423;-50
2023/08/21 05:30:57;;;;;;;4.20;3.80;;;;;;;23.50;100.00;99920.60;104869;1263;59839;-51
2023/08/21 05:33:25;;;;;;;3.90;3.10;;;;;;;23.54;100.00;99915.42;105232;1259;59769;-51
2023/08/21 05:35:53;;;;;;;3.50;3.30;;;;;;;23.59;100.00;99919.58;104997;1267;72846;-52
2023/08/21 05:38:20;;;;;;;4.60;2.80;;;;;;;23.62;100.00;99917.38;104453;1263;66752;-50
2023/08/21 05:40:48;;;;;;;3.60;3.00;;;;;;;23.66;100.00;99920.59;104389;1264;72448;-51
2023/08/21 05:43:16;;;;;;;3.90;3.60;;;;;;;23.71;100.00;99927.44;104812;1273;60378;-51
2023/08/21 05:45:43;;;;;;;3.10;2.90;;;;;;;23.76;100.00;99923.16;105110;1273;59772;-48
2023/08/21 05:48:12;;;;;;;3.00;2.50;;;;;;;23.80;100.00;99924.00;104744;1263;73151;-50
2023/08/21 05:50:39;;;;;;;4.60;2.20;;;;;;;23.86;100.00;99925.98;104640;1267;68994;-52
2023/08/21 05:53:06;;;;;;;7.70;2.80;;;;;;;23.91;100.00;99932.61;105044;1265;72429;-53
2023/08/21 05:55:34;;;;;;;2.90;2.50;;;;;;;23.96;100.00;99932.09;105298;1255;60811;-50
2023/08/21 05:58:02;;;;;;;3.90;2.90;;;;;;;24.00;100.00;99931.81;105032;1260;60100;-50
2023/08/21 06:00:29;;;;;;;4.90;2.80;;;;;;;24.04;100.00;99936.43;105007;1262;73056;-49
2023/08/21 06:02:58;;;;;;;2.90;2.70;;;;;;;24.07;100.00;99937.74;105348;1262;66903;-49
2023/08/21 06:05:37;;;;;;;4.70;3.50;;;;;;;24.12;100.00;99937.02;105592;1260;72388;-49
2023/08/21 06:08:05;;;;;;;3.90;2.80;;;;;;;24.15;100.00;99937.29;105350;1260;61682;-50
2023/08/21 06:10:32;;;;;;;2.70;2.50;;;;;;;24.19;100.00;99940.60;104995;1261;60080;-50
2023/08/21 06:12:59;;;;;;;3.20;3.00;;;;;;;24.23;100.00;99938.38;104946;1254;72217;-49
2023/08/21 06:15:27;;;;;;;3.00;2.80;;;;;;;24.27;100.00;99936.08;105253;1264;68299;-50
2023/08/21 06:17:54;;;;;;;2.90;2.70;;;;;;;24.32;100.00;99935.18;105275;1262;72647;-50
2023/08/21 06:20:21;;;;;;;2.20;2.10;;;;;;;24.39;100.00;99937.98;105320;1255;62151;-51
2023/08/21 06:22:49;;;;;;;3.10;2.30;;;;;;;24.47;100.00;99942.44;105299;1265;60756;-50
2023/08/21 06:25:16;;;;;;;3.90;2.50;;;;;;;24.57;100.00;99948.61;105035;1258;73027;-52
2023/08/21 06:27:43;;;;;;;5.90;2.60;;;;;;;24.65;100.00;99954.19;104986;1260;69307;-50
2023/08/21 06:30:26;;;;;;;2.50;2.00;;;;;;;24.73;100.00;99955.11;108866;1256;72696;-49
2023/08/21 06:32:54;;;;;;;2.70;2.60;;;;;;;24.81;100.00;99960.39;107355;1260;60495;-49
2023/08/21 06:35:24;;;;;;;3.40;2.90;;;;;;;24.87;100.00;99959.89;108804;1257;60707;-50
2023/08/21 06:37:54;;;;;;;3.10;2.90;;;;;;;24.93;100.00;99963.19;108902;1256;72926;-52
2023/08/21 06:40:21;;;;;;;2.60;2.30;;;;;;;24.98;100.00;99967.67;108788;1255;66823;-51
2023/08/21 06:42:50;;;;;;;2.20;2.10;;;;;;;25.01;100.00;99969.93;108243;1257;71442;-52
2023/08/21 06:45:19;;;;;;;2.10;1.90;;;;;;;25.03;100.00;99969.70;108850;1256;60415;-52
2023/08/21 06:47:47;;;;;;;2.20;2.10;;;;;;;25.07;100.00;99969.28;108826;1257;60066;-51
2023/08/21 06:50:14;;;;;;;4.20;2.30;;;;;;;25.08;100.00;99968.23;109002;1257;73025;-51
2023/08/21 06:52:42;;;;;;;2.30;2.20;;;;;;;25.09;100.00;99967.55;108915;1256;65954;-51
2023/08/21 06:55:09;;;;;;;2.40;2.30;;;;;;;25.12;100.00;99965.08;108910;1257;71360;-53
2023/08/21 06:57:37;;;;;;;2.60;2.50;;;;;;;25.16;100.00;99966.04;108920;1257;59106;-50
2023/08/21 07:00:05;;;;;;;2.70;2.50;;;;;;;25.21;100.00;99967.55;108918;1256;59031;-50
2023/08/21 07:02:33;;;;;;;3.80;3.50;;;;;;;25.23;100.00;99965.64;108408;1257;73027;-53
2023/08/21 07:05:00;;;;;;;3.80;2.30;;;;;;;25.26;100.00;99970.34;105294;1260;65489;-49
2023/08/21 07:07:28;;;;;;;2.30;2.20;;;;;;;25.28;100.00;99968.63;105113;1261;72346;-50
2023/08/21 07:09:55;;;;;;;3.20;2.30;;;;;;;25.33;100.00;99973.28;105081;1256;61663;-50
2023/08/21 07:12:23;;;;;;;5.10;2.30;;;;;;;25.38;100.00;99975.92;105167;1257;60503;-51
2023/08/21 07:14:50;;;;;;;2.00;1.80;;;;;;;25.43;100.00;99981.40;105186;1257;73105;-52
2023/08/21 07:17:17;;;;;;;4.40;2.40;;;;;;;25.48;100.00;99980.23;105086;1261;66950;-50
2023/08/21 07:19:44;;;;;;;5.10;2.20;;;;;;;25.54;100.00;99986.23;105333;1276;73535;-51
2023/08/21 07:22:13;;;;;;;2.90;2.70;;;;;;;25.60;100.00;99989.58;105924;1258;60033;-51
2023/08/21 07:24:41;;;;;;;2.60;1.90;;;;;;;25.67;100.00;99988.17;105127;1254;60216;-51
2023/08/21 07:27:08;;;;;;;3.60;1.70;;;;;;;25.73;100.00;99991.00;105302;1261;73477;-52
2023/08/21 07:29:35;;;;;;;3.90;2.40;;;;;;;25.79;100.00;99983.75;105279;1260;65500;-51
2023/08/21 07:32:03;;;;;;;2.40;2.30;;;;;;;25.86;100.00;99985.98;105276;1261;71870;-52
2023/08/21 07:34:30;;;;;;;2.60;2.30;;;;;;;25.91;100.00;99982.64;105636;1254;60198;-51
2023/08/21 07:36:57;;;;;;;3.80;2.90;;;;;;;25.96;100.00;99990.74;105297;1260;59631;-54
2023/08/21 07:39:25;;;;;;;2.20;2.10;;;;;;;26.01;100.00;99993.98;105267;1254;72298;-51
2023/08/21 07:41:52;;;;;;;4.90;2.20;;;;;;;26.08;100.00;99993.70;105224;1260;65521;-51
2023/08/21 07:44:20;;;;;;;2.90;2.50;;;;;;;26.13;100.00;99991.60;105192;1256;71596;-53
2023/08/21 07:46:47;;;;;;;2.30;2.20;;;;;;;26.20;100.00;99997.21;105281;1267;59682;-52
2023/08/21 07:49:14;;;;;;;2.00;1.70;;;;;;;26.27;100.00;99997.26;105337;1254;60968;-52
2023/08/21 07:51:42;;;;;;;2.00;1.90;;;;;;;26.34;100.00;99993.70;105352;1260;73091;-52
2023/08/21 07:54:09;;;;;;;2.10;2.00;;;;;;;26.43;100.00;99998.40;105375;1260;67302;-50
2023/08/21 07:56:37;;;;;;;4.50;2.40;;;;;;;26.53;100.00;99997.11;105387;1257;73136;-51
2023/08/21 07:59:04;;;;;;;2.20;2.00;;;;;;;26.62;100.00;99998.92;105429;1261;60021;-52
2023/08/21 08:01:32;;;;;;;6.80;1.70;;;;;;;26.69;100.00;100001.55;105404;1254;60082;-52
2023/08/21 08:04:00;;;;;;;1.80;1.10;;;;;;;26.77;100.00;100007.91;105666;1254;73639;-53
2023/08/21 08:06:27;;;;;;;3.60;1.90;;;;;;;26.82;100.00;100005.41;105308;1254;65675;-50
2023/08/21 08:08:54;;;;;;;2.60;1.70;;;;;;;26.87;100.00;100009.54;105387;1260;73107;-50
2023/08/21 08:11:22;;;;;;;2.00;1.40;;;;;;;26.92;100.00;100011.54;105370;1260;60078;-53
2023/08/21 08:13:49;;;;;;;1.40;1.30;;;;;;;26.98;100.00;100009.81;105284;1254;61313;-51
2023/08/21 08:16:16;;;;;;;1.50;1.20;;;;;;;27.04;100.00;100013.27;105416;1260;73002;-52
2023/08/21 08:18:44;;;;;;;3.60;1.40;;;;;;;27.12;100.00;100017.53;105670;1257;67043;-53
2023/08/21 08:21:11;;;;;;;3.40;1.40;;;;;;;27.20;100.00;100016.89;105367;1261;73085;-52
2023/08/21 08:23:39;;;;;;;1.60;1.20;;;;;;;27.26;100.00;100019.63;105399;1255;59727;-52
2023/08/21 08:26:07;;;;;;;3.10;1.10;;;;;;;27.30;100.00;100025.45;105229;1254;60527;-51
2023/08/21 08:28:35;;;;;;;1.50;1.30;;;;;;;27.29;100.00;100025.77;105633;1259;72131;-52
2023/08/21 08:31:02;;;;;;;2.60;1.20;;;;;;;27.28;100.00;100025.48;105318;1254;66822;-51
2023/08/21 08:33:29;;;;;;;1.20;1.10;;;;;;;27.28;100.00;100023.85;105316;1257;72611;-50
2023/08/21 08:35:57;;;;;;;1.20;1.00;;;;;;;27.30;100.00;100022.84;105311;1263;60463;-51
2023/08/21 08:38:24;;;;;;;2.30;1.40;;;;;;;27.34;100.00;100028.19;105357;1254;60562;-52
2023/08/21 08:40:51;;;;;;;1.10;1.00;;;;;;;27.37;100.00;100025.27;105325;1260;73836;-53
2023/08/21 08:43:18;;;;;;;1.10;1.00;;;;;;;27.42;100.00;100027.80;105359;1260;66727;-51
2023/08/21 08:45:46;;;;;;;1.50;1.40;;;;;;;27.46;100.00;100028.90;105322;1259;72671;-51
2023/08/21 08:48:15;;;;;;;3.30;1.20;;;;;;;27.47;100.00;100029.87;105651;1254;60425;-52
2023/08/21 08:50:43;;;;;;;1.20;1.00;;;;;;;27.47;100.00;100031.09;105420;1270;60327;-52
2023/08/21 08:53:10;;;;;;;2.30;1.30;;;;;;;27.47;100.00;100033.05;105343;1260;73831;-54
2023/08/21 08:55:44;;;;;;;1.10;1.10;;;;;;;27.53;100.00;100028.76;105616;1254;67103;-51
2023/08/21 08:58:11;;;;;;;2.80;1.00;;;;;;;27.59;100.00;100028.73;106033;1254;72663;-52
2023/08/21 09:00:39;;;;;;;1.50;1.00;;;;;;;27.68;100.00;100031.79;105386;1256;60422;-50
2023/08/21 09:03:06;;;;;;;1.30;1.10;;;;;;;27.76;100.00;100036.88;105490;1254;60563;-52
2023/08/21 09:05:34;;;;;;;3.20;1.40;;;;;;;27.78;100.00;100034.25;105436;1254;74293;-52
2023/08/21 09:08:04;;;;;;;3.30;1.00;;;;;;;27.77;100.00;100031.06;105526;1261;66937;-54
2023/08/21 09:10:31;;;;;;;2.00;1.00;;;;;;;27.77;100.00;100033.08;105290;1254;72727;-54
2023/08/21 09:13:01;;;;;;;1.10;1.10;;;;;;;27.81;100.00;100033.52;105070;1254;60533;-50
2023/08/21 09:15:31;;;;;;;1.20;1.10;;;;;;;27.88;100.00;100034.84;106896;1254;60382;-52
2023/08/21 09:18:11;;;;;;;2.20;1.10;;;;;;;27.93;100.00;100037.96;105197;1259;73794;-52
2023/08/21 09:20:38;;;;;;;2.70;1.20;;;;;;;27.95;100.00;100035.61;105304;1260;66821;-54
2023/08/21 09:23:06;;;;;;;1.10;1.00;;;;;;;27.98;100.00;100038.96;109031;1253;72653;-52
2023/08/21 09:25:35;;;;;;;1.30;1.20;;;;;;;28.03;100.00;100034.85;108983;1254;59668;-54
2023/08/21 09:28:05;;;;;;;1.30;1.20;;;;;;;28.12;100.00;100035.27;106616;1254;60569;-51
2023/08/21 09:30:52;;;;;;;3.20;1.00;;;;;;;28.24;100.00;100034.86;108994;1254;73568;-54
2023/08/21 09:33:21;;;;;;;1.90;1.00;;;;;;;28.36;100.00;100042.66;108876;1256;66723;-53
2023/08/21 09:35:48;;;;;;;1.20;1.10;;;;;;;28.44;100.00;100044.80;109028;1254;72605;-51
2023/08/21 09:38:16;;;;;;;1.30;1.10;;;;;;;28.51;100.00;100039.11;108998;1254;58801;-51
2023/08/21 09:40:44;;;;;;;3.80;1.20;;;;;;;28.59;100.00;100042.23;109050;1254;58696;-53
2023/08/21 09:43:11;;;;;;;1.10;0.90;;;;;;;28.67;100.00;100044.27;108956;1254;73798;-54
2023/08/21 09:45:39;;;;;;;0.90;0.90;;;;;;;28.75;100.00;100043.33;109032;1253;66887;-55
2023/08/21 09:48:07;;;;;;;1.30;1.10;;;;;;;28.81;100.00;100043.52;109031;1256;72679;-52
2023/08/21 09:50:34;;;;;;;1.60;1.10;;;;;;;28.85;100.00;100048.60;109035;1254;58354;-52
2023/08/21 09:53:02;;;;;;;2.40;1.10;;;;;;;28.82;100.00;100043.17;109021;1254;60015;-52
2023/08/21 09:55:31;;;;;;;1.20;0.90;;;;;;;28.78;100.00;100041.52;109043;1254;72623;-52
2023/08/21 09:57:59;;;;;;;4.70;1.20;;;;;;;28.73;100.00;100043.12;108953;1254;67487;-52
2023/08/21 10:00:33;;;;;;;1.80;1.00;;;;;;;28.68;100.00;100042.53;108967;1254;72928;-52
2023/08/21 10:03:02;;;;;;;;;;;;;;;28.64;100.00;100040.11;109031;1254;58800;-51
2023/08/21 10:05:31;;;;;;;1.10;1.00;;;;;;;28.64;100.00;100037.30;108981;1254;59750;-55
2023/08/21 10:08:01;;;;;;;1.10;1.00;;;;;;;28.68;100.00;100039.00;109039;1254;73730;-51
2023/08/21 10:10:37;;;;;;;0.90;0.90;;;;;;;28.71;100.00;100035.84;108152;1254;66904;-52
2023/08/21 10:13:04;;;;;;;1.00;0.90;;;;;;;28.79;100.00;100035.87;106035;1256;72549;-52
2023/08/21 10:15:35;;;;;;;1.30;0.90;;;;;;;28.90;100.00;100038.14;105508;1257;60562;-52
2023/08/21 10:18:29;;;;;;;1.20;0.90;;;;;;;29.00;100.00;100033.33;105107;1261;59869;-54
2023/08/21 10:20:57;;;;;;;2.10;1.10;;;;;;;29.03;100.00;100031.08;105193;1258;74005;-51
2023/08/21 10:23:28;;;;;;;2.40;0.90;;;;;;;29.02;100.00;100033.57;105068;1254;65776;-53
2023/08/21 10:26:00;;;;;;;1.10;0.90;;;;;;;28.99;100.00;100026.93;105476;1257;71667;-53
2023/08/21 10:28:47;;;;;;;1.30;1.00;;;;;;;29.01;100.00;100022.64;105245;1254;60509;-51
2023/08/21 10:31:40;;;;;;;5.80;1.20;;;;;;;29.09;100.00;100031.10;105354;1259;60459;-50
2023/08/21 10:34:12;;;;;;;2.10;1.10;;;;;;;29.19;100.00;100031.19;105249;1254;73857;-50
2023/08/21 10:36:43;;;;;;;0.90;0.80;;;;;;;29.25;100.00;100029.09;105535;1257;65843;-50
2023/08/21 10:39:24;;;;;;;1.50;1.00;;;;;;;29.32;100.00;100031.39;105280;1259;72644;-51
2023/08/21 10:41:55;;;;;;;0.90;0.90;;;;;;;29.33;100.00;100034.95;105382;1258;60562;-52
2023/08/21 10:44:41;;;;;;;0.80;0.80;;;;;;;29.34;100.00;100038.52;105745;1254;60571;-50
2023/08/21 10:47:33;;;;;;;2.70;1.00;;;;;;;29.40;100.00;100039.90;105279;1259;73495;-52
2023/08/21 10:50:05;;;;;;;1.40;0.90;;;;;;;29.48;100.00;100041.23;105034;1255;66806;-52
2023/08/21 10:52:37;;;;;;;2.30;1.00;;;;;;;29.56;100.00;100043.20;105512;1258;72809;-51
2023/08/21 10:55:06;;;;;;;0.90;0.90;;;;;;;29.59;100.00;100044.88;105538;1254;60562;-50
2023/08/21 10:57:33;;;;;;;1.20;0.90;;;;;;;29.53;100.00;100047.08;105445;1260;60367;-54
2023/08/21 11:00:03;;;;;;;5.00;1.20;;;;;;;29.43;100.00;100049.25;105360;1256;73004;-52
2023/08/21 11:02:32;;;;;;;5.30;1.40;;;;;;;29.23;100.00;100059.45;105568;1259;65545;-52
2023/08/21 11:05:00;;;;;;;9.90;2.40;;;;;;;28.95;100.00;100059.55;105353;1254;72438;-51
2023/08/21 11:07:28;;;;;;;2.00;1.50;;;;;;;28.70;100.00;100055.50;105557;1254;60445;-52
2023/08/21 11:09:56;;;;;;;4.10;2.30;;;;;;;28.56;100.00;100052.44;105569;1254;60405;-52
2023/08/21 11:12:24;;;;;;;2.10;1.90;;;;;;;28.47;100.00;100053.29;105662;1259;74209;-50
2023/08/21 11:14:51;;;;;;;2.40;1.60;;;;;;;28.37;100.00;100049.36;105460;1254;66205;-51
2023/08/21 11:17:18;;;;;;;1.70;1.20;;;;;;;28.19;100.00;100059.19;105315;1257;71091;-49
2023/08/21 11:19:48;;;;;;;1.70;1.20;;;;;;;28.04;100.00;100057.68;105491;1254;60446;-51
2023/08/21 11:22:16;;;;;;;4.50;2.00;;;;;;;27.89;100.00;100058.63;105530;1254;60524;-51